Time;durP1;ratioP1;P1;durP2;ratioP2;P2;SDS_P1;SDS_P2;PMS_P1;PMS_P2;Temp;Humidity;BMP_temperature;BMP_pressure;BME280_temperature;BME280_humidity;BME280_pressure;Samples;Min_cycle;Max_cycle;Signal;HPM_P1;HPM_P2
2022/10/05 00:01:24;;;;;;;19.90;13.87;;;11.70;99.90;;;;;;5021103;28;20461;-89
2022/10/05 00:03:51;;;;;;;21.30;14.07;;;11.70;99.90;;;;;;5031815;28;20434;-89
2022/10/05 00:06:19;;;;;;;16.67;13.43;;;11.70;99.90;;;;;;5025528;28;20443;-89
2022/10/05 00:08:46;;;;;;;14.37;12.30;;;11.70;99.90;;;;;;5027588;28;20450;-89
2022/10/05 00:11:15;;;;;;;14.80;12.30;;;11.60;99.90;;;;;;5034570;28;20451;-91
2022/10/05 00:13:42;;;;;;;14.47;12.97;;;11.70;99.90;;;;;;5036051;28;20442;-89
2022/10/05 00:16:15;;;;;;;15.07;13.23;;;11.80;99.90;;;;;;5035193;28;20453;-90
2022/10/05 00:18:45;;;;;;;15.83;14.13;;;11.80;99.90;;;;;;5017858;28;20488;-89
2022/10/05 00:21:23;;;;;;;20.57;14.00;;;11.80;99.90;;;;;;5012273;28;20458;-89
2022/10/05 00:23:51;;;;;;;18.20;12.83;;;11.80;99.90;;;;;;5012845;28;20461;-89
2022/10/05 00:26:20;;;;;;;16.60;12.73;;;11.80;99.90;;;;;;5012924;28;20450;-89
2022/10/05 00:28:48;;;;;;;17.43;12.13;;;11.80;99.90;;;;;;5013062;28;20439;-89
2022/10/05 00:31:19;;;;;;;17.57;13.80;;;11.80;99.90;;;;;;5012790;28;20466;-89
2022/10/05 00:33:47;;;;;;;17.20;13.60;;;11.80;99.90;;;;;;5013246;28;20451;-89
2022/10/05 00:36:13;;;;;;;17.70;13.00;;;11.70;99.90;;;;;;5031071;28;20457;-90
2022/10/05 00:38:41;;;;;;;16.50;13.03;;;11.70;99.90;;;;;;5040875;28;20447;-89
2022/10/05 00:41:14;;;;;;;15.60;12.80;;;11.70;99.90;;;;;;5023884;28;20478;-88
2022/10/05 00:43:55;;;;;;;18.23;14.57;;;11.70;99.90;;;;;;5035338;28;20870;-87
2022/10/05 00:46:26;;;;;;;15.77;14.07;;;11.60;99.90;;;;;;5018276;28;20442;-87
2022/10/05 00:49:03;;;;;;;17.60;14.43;;;11.60;99.90;;;;;;5017410;28;20460;-88
2022/10/05 00:51:31;;;;;;;17.20;14.40;;;11.60;99.90;;;;;;5016877;28;20438;-88
2022/10/05 00:54:14;;;;;;;21.83;15.27;;;11.60;99.90;;;;;;5015505;28;20447;-87
2022/10/05 00:56:57;;;;;;;27.10;17.97;;;11.60;99.90;;;;;;5015799;28;20450;-88
2022/10/05 00:59:40;;;;;;;17.53;13.83;;;11.60;99.90;;;;;;5015997;28;20490;-87
2022/10/05 01:02:14;;;;;;;15.80;13.40;;;11.60;99.90;;;;;;5015747;28;20461;-88
2022/10/05 01:04:48;;;;;;;15.90;13.90;;;11.50;99.90;;;;;;5017095;28;20446;-88
2022/10/05 01:07:22;;;;;;;17.40;14.50;;;11.40;99.90;;;;;;5027734;28;20435;-87
2022/10/05 01:09:56;;;;;;;14.20;12.67;;;11.40;99.90;;;;;;5018111;28;20462;-87
2022/10/05 01:12:28;;;;;;;18.80;12.47;;;11.30;99.90;;;;;;5022168;28;20927;-88
2022/10/05 01:15:02;;;;;;;22.50;14.77;;;11.40;99.90;;;;;;5016197;28;20935;-87
2022/10/05 01:17:36;;;;;;;21.80;13.97;;;11.50;99.90;;;;;;5015253;28;20883;-88
2022/10/05 01:20:15;;;;;;;15.97;13.50;;;11.50;99.90;;;;;;5015113;28;20838;-88
2022/10/05 01:22:59;;;;;;;24.10;13.23;;;11.40;99.90;;;;;;5015386;28;20454;-88
2022/10/05 01:25:32;;;;;;;17.57;14.17;;;11.30;99.90;;;;;;5033162;28;20445;-87
2022/10/05 01:28:03;;;;;;;21.80;12.60;;;11.30;99.90;;;;;;5037371;28;20446;-87
2022/10/05 01:30:37;;;;;;;19.67;14.40;;;11.40;99.90;;;;;;5017072;28;21053;-88
2022/10/05 01:33:12;;;;;;;15.83;12.93;;;11.30;99.90;;;;;;5020789;28;20455;-88
2022/10/05 01:35:47;;;;;;;16.50;13.07;;;11.30;99.90;;;;;;5038270;28;20466;-87
2022/10/05 01:38:31;;;;;;;16.67;13.20;;;11.20;99.90;;;;;;5020831;28;20951;-87
2022/10/05 01:41:06;;;;;;;15.40;13.80;;;11.20;99.90;;;;;;5015067;28;20498;-88
2022/10/05 01:43:42;;;;;;;18.90;13.70;;;11.10;99.90;;;;;;5014865;28;20446;-89
2022/10/05 01:46:21;;;;;;;14.87;12.83;;;11.20;99.90;;;;;;5028778;28;20442;-88
2022/10/05 01:48:58;;;;;;;15.70;12.47;;;11.20;99.90;;;;;;5016070;28;20442;-88
2022/10/05 01:51:36;;;;;;;15.17;11.47;;;11.20;99.90;;;;;;5015401;28;20517;-89
2022/10/05 01:54:17;;;;;;;15.87;13.13;;;11.10;99.90;;;;;;5014899;28;20469;-88
2022/10/05 01:56:54;;;;;;;13.03;11.13;;;11.00;99.90;;;;;;5014607;28;20947;-89
2022/10/05 01:59:35;;;;;;;14.20;12.67;;;10.90;99.90;;;;;;5014961;28;20494;-89
2022/10/05 02:02:06;;;;;;;15.53;12.30;;;10.90;99.90;;;;;;5025076;28;20448;-90
2022/10/05 02:04:39;;;;;;;17.73;13.50;;;10.90;99.90;;;;;;5023049;28;20443;-89
2022/10/05 02:07:12;;;;;;;18.43;12.50;;;10.80;99.90;;;;;;5025339;28;20474;-89
2022/10/05 02:09:46;;;;;;;16.33;11.50;;;10.80;99.90;;;;;;5024362;28;20467;-89
2022/10/05 02:12:17;;;;;;;20.47;13.60;;;10.70;99.90;;;;;;5025794;28;20451;-89
2022/10/05 02:14:50;;;;;;;16.00;13.13;;;10.70;99.90;;;;;;5038268;28;20426;-86
2022/10/05 02:17:19;;;;;;;16.80;13.20;;;10.80;99.90;;;;;;5045594;28;20449;-86
2022/10/05 02:19:50;;;;;;;20.00;14.17;;;10.80;99.90;;;;;;5043514;28;20497;-86
2022/10/05 02:22:23;;;;;;;14.10;12.47;;;10.70;99.90;;;;;;5023934;28;20534;-87
2022/10/05 02:24:54;;;;;;;23.83;14.00;;;10.70;99.90;;;;;;5022970;28;20451;-86
2022/10/05 02:27:27;;;;;;;24.30;14.57;;;10.70;99.90;;;;;;5024048;28;20446;-87
2022/10/05 02:29:59;;;;;;;16.67;14.00;;;10.60;99.90;;;;;;5023100;28;20463;-87
2022/10/05 02:32:32;;;;;;;17.27;13.67;;;10.60;99.90;;;;;;5026336;28;20442;-87
2022/10/05 02:35:03;;;;;;;17.33;13.97;;;10.60;99.90;;;;;;5035383;28;20452;-88
2022/10/05 02:37:42;;;;;;;16.17;13.13;;;10.60;99.90;;;;;;5036616;28;20445;-89
2022/10/05 02:40:18;;;;;;;15.43;13.50;;;10.60;99.90;;;;;;5035089;28;20496;-89
2022/10/05 02:42:53;;;;;;;14.43;12.63;;;10.60;99.90;;;;;;5040159;28;20445;-88
2022/10/05 02:45:33;;;;;;;16.73;13.07;;;10.60;99.90;;;;;;5055332;28;20424;-88
2022/10/05 02:48:09;;;;;;;19.67;13.57;;;10.50;99.90;;;;;;5054047;28;20440;-88
2022/10/05 02:50:43;;;;;;;17.97;12.40;;;10.50;99.90;;;;;;5043485;28;20456;-88
2022/10/05 02:53:22;;;;;;;19.13;14.20;;;10.50;99.90;;;;;;5055138;28;20500;-88
2022/10/05 02:56:00;;;;;;;16.30;12.00;;;10.40;99.90;;;;;;5050876;28;20440;-87
2022/10/05 02:58:29;;;;;;;18.80;13.40;;;10.30;99.90;;;;;;5034212;28;20449;-89
2022/10/05 03:01:06;;;;;;;15.83;12.60;;;10.40;99.90;;;;;;5038530;28;20486;-88
2022/10/05 03:03:38;;;;;;;16.90;12.90;;;10.30;99.90;;;;;;5052453;28;20436;-89
2022/10/05 03:06:11;;;;;;;14.77;12.83;;;10.30;99.90;;;;;;5048808;28;20446;-88
2022/10/05 03:08:46;;;;;;;19.97;13.00;;;10.40;99.90;;;;;;5051997;28;20445;-88
2022/10/05 03:11:22;;;;;;;17.10;12.47;;;10.30;99.90;;;;;;5041338;28;20479;-88
2022/10/05 03:13:58;;;;;;;17.87;13.70;;;10.30;99.90;;;;;;5035778;28;20449;-87
2022/10/05 03:16:44;;;;;;;17.73;13.43;;;10.30;99.90;;;;;;5049172;28;20435;-87
2022/10/05 03:19:31;;;;;;;16.17;12.67;;;10.30;99.90;;;;;;5050958;28;20624;-85
2022/10/05 03:22:05;;;;;;;17.77;13.33;;;10.30;99.90;;;;;;5051704;28;20417;-84
2022/10/05 03:24:56;;;;;;;19.50;12.40;;;10.30;99.90;;;;;;5028895;28;20433;-88
2022/10/05 03:27:39;;;;;;;17.40;13.30;;;10.30;99.90;;;;;;5028166;28;20510;-88
2022/10/05 03:30:12;;;;;;;16.53;13.70;;;10.30;99.90;;;;;;5033066;28;20488;-90
2022/10/05 03:32:56;;;;;;;14.87;12.53;;;10.30;99.90;;;;;;5022598;28;20439;-90
2022/10/05 03:35:29;;;;;;;16.73;12.60;;;10.30;99.90;;;;;;5021704;28;20461;-90
2022/10/05 03:38:07;;;;;;;16.37;13.20;;;10.30;99.90;;;;;;5020533;28;20443;-90
2022/10/05 03:40:39;;;;;;;16.43;12.80;;;10.30;99.90;;;;;;5021647;28;20481;-90
2022/10/05 03:43:24;;;;;;;14.10;12.50;;;10.20;99.90;;;;;;5021908;28;20441;-90
2022/10/05 03:46:00;;;;;;;28.40;13.17;;;10.20;99.90;;;;;;5023598;28;20441;-89
2022/10/05 03:48:33;;;;;;;13.17;11.83;;;10.20;99.90;;;;;;5024349;28;20442;-89
2022/10/05 03:51:07;;;;;;;17.63;11.70;;;10.20;99.90;;;;;;5022708;28;21006;-86
2022/10/05 03:53:41;;;;;;;14.30;12.87;;;10.20;99.90;;;;;;5022046;28;20969;-89
2022/10/05 03:56:13;;;;;;;16.30;13.13;;;10.20;99.90;;;;;;5021615;28;20952;-88
2022/10/05 03:58:46;;;;;;;14.37;12.00;;;10.20;99.90;;;;;;5022849;28;20457;-89
2022/10/05 04:01:19;;;;;;;15.87;14.10;;;10.20;99.90;;;;;;5024516;28;20477;-88
2022/10/05 04:03:50;;;;;;;15.27;13.70;;;10.20;99.90;;;;;;5034178;28;20430;-88
2022/10/05 04:06:22;;;;;;;15.87;13.70;;;10.30;99.90;;;;;;5026529;28;20445;-87
2022/10/05 04:08:54;;;;;;;14.43;12.83;;;10.20;99.90;;;;;;5022130;28;20431;-88
2022/10/05 04:11:27;;;;;;;17.63;13.60;;;10.10;99.90;;;;;;5023425;28;20447;-89
2022/10/05 04:13:59;;;;;;;17.63;14.40;;;10.10;99.90;;;;;;5031285;28;20453;-86
2022/10/05 04:16:30;;;;;;;21.77;13.50;;;10.10;99.90;;;;;;5044415;28;20444;-87
2022/10/05 04:19:03;;;;;;;17.13;12.70;;;10.10;99.90;;;;;;5027549;28;20466;-88
2022/10/05 04:21:34;;;;;;;18.13;14.10;;;10.10;99.90;;;;;;5026761;28;20472;-89
2022/10/05 04:24:06;;;;;;;16.57;14.90;;;10.00;99.90;;;;;;5025112;28;20450;-88
2022/10/05 04:26:38;;;;;;;13.47;11.97;;;10.00;99.90;;;;;;5024932;28;20446;-88
2022/10/05 04:29:13;;;;;;;15.93;12.30;;;10.00;99.90;;;;;;5033627;28;20440;-88
2022/10/05 04:31:51;;;;;;;14.40;12.90;;;10.00;99.90;;;;;;5058821;28;20440;-87
2022/10/05 04:34:39;;;;;;;14.77;13.07;;;9.90;99.90;;;;;;5041597;28;20456;-89
2022/10/05 04:37:12;;;;;;;14.00;11.87;;;9.90;99.90;;;;;;5036666;28;20453;-88
2022/10/05 04:39:46;;;;;;;12.27;11.00;;;9.90;99.90;;;;;;5036833;28;20476;-88
2022/10/05 04:42:24;;;;;;;12.63;11.30;;;9.90;99.90;;;;;;5037101;28;20476;-88
2022/10/05 04:45:03;;;;;;;14.50;10.70;;;9.90;99.90;;;;;;5037213;28;20454;-88
2022/10/05 04:48:00;;;;;;;14.57;11.40;;;10.00;99.90;;;;;;5036168;28;20829;-90
2022/10/05 04:50:44;;;;;;;15.60;10.70;;;9.90;99.90;;;;;;5039502;28;20477;-87
2022/10/05 04:53:19;;;;;;;11.23;10.13;;;10.00;99.90;;;;;;5038650;28;20457;-88
2022/10/05 04:55:53;;;;;;;15.60;11.40;;;10.00;99.90;;;;;;5055602;28;20433;-86
2022/10/05 04:58:35;;;;;;;15.10;11.27;;;9.90;99.90;;;;;;5060687;28;20445;-86
2022/10/05 05:01:13;;;;;;;13.77;10.57;;;9.90;99.90;;;;;;5038940;28;20485;-87
2022/10/05 05:03:58;;;;;;;15.17;10.07;;;9.90;99.90;;;;;;5045915;28;20449;-88
2022/10/05 05:06:35;;;;;;;13.20;10.63;;;9.90;99.90;;;;;;5043659;28;20452;-88
2022/10/05 05:09:26;;;;;;;16.53;11.77;;;9.90;99.90;;;;;;5037711;28;20520;-88
2022/10/05 05:12:07;;;;;;;16.00;11.27;;;9.90;99.90;;;;;;5049106;28;20436;-86
2022/10/05 05:14:46;;;;;;;16.83;12.23;;;9.90;99.90;;;;;;5041342;28;20450;-88
2022/10/05 05:17:27;;;;;;;15.00;11.60;;;9.90;99.90;;;;;;5037258;28;20541;-88
2022/10/05 05:20:04;;;;;;;18.30;12.57;;;9.90;99.90;;;;;;5036917;28;20465;-89
2022/10/05 05:22:56;;;;;;;16.40;12.73;;;9.90;99.90;;;;;;5057619;28;21063;-88
2022/10/05 05:25:36;;;;;;;19.00;13.00;;;9.90;99.90;;;;;;5041932;28;20445;-88
2022/10/05 05:28:14;;;;;;;16.40;12.07;;;9.80;99.90;;;;;;5036400;28;20450;-88
2022/10/05 05:30:44;;;;;;;12.73;11.40;;;9.90;99.90;;;;;;5036838;28;20472;-87
2022/10/05 05:33:20;;;;;;;13.67;12.07;;;9.80;99.90;;;;;;5040886;28;20453;-88
2022/10/05 05:36:09;;;;;;;14.17;11.27;;;9.80;99.90;;;;;;5036257;28;20870;-88
2022/10/05 05:38:41;;;;;;;16.53;14.00;;;9.70;99.90;;;;;;5035306;28;20445;-88
2022/10/05 05:41:10;;;;;;;14.17;11.50;;;9.70;99.90;;;;;;5034946;28;20525;-89
2022/10/05 05:43:51;;;;;;;18.90;12.60;;;9.70;99.90;;;;;;5035314;28;20468;-87
2022/10/05 05:46:25;;;;;;;13.00;11.70;;;9.70;99.90;;;;;;5034526;28;20465;-88
2022/10/05 05:48:53;;;;;;;14.97;13.20;;;9.80;99.90;;;;;;5034569;28;20448;-88
2022/10/05 05:51:27;;;;;;;16.67;13.87;;;9.80;99.90;;;;;;5034590;28;20453;-88
2022/10/05 05:54:12;;;;;;;16.43;13.50;;;9.80;99.90;;;;;;5036966;28;20437;-88
2022/10/05 05:56:43;;;;;;;18.43;13.90;;;9.80;99.90;;;;;;5053368;28;20430;-87
2022/10/05 05:59:15;;;;;;;21.97;14.60;;;9.80;99.90;;;;;;5060029;28;20418;-86
2022/10/05 06:01:48;;;;;;;20.87;14.87;;;9.80;99.90;;;;;;5059539;28;20454;-86
2022/10/05 06:04:19;;;;;;;19.70;15.70;;;9.90;99.90;;;;;;5057985;28;20452;-87
2022/10/05 06:06:51;;;;;;;15.60;13.60;;;9.90;99.90;;;;;;5052585;28;20452;-88
2022/10/05 06:09:24;;;;;;;19.07;14.17;;;9.90;99.90;;;;;;5047755;28;20465;-87
2022/10/05 06:11:54;;;;;;;18.60;14.80;;;9.90;99.90;;;;;;5037783;28;20442;-87
2022/10/05 06:14:28;;;;;;;16.80;13.60;;;9.90;99.90;;;;;;5038440;28;20441;-88
2022/10/05 06:17:01;;;;;;;22.93;15.43;;;10.00;99.90;;;;;;5054013;28;20460;-87
2022/10/05 06:19:32;;;;;;;20.53;18.20;;;10.00;99.90;;;;;;5045559;28;20485;-88
2022/10/05 06:22:03;;;;;;;19.73;17.10;;;10.10;99.90;;;;;;5042173;28;20853;-88
2022/10/05 06:24:37;;;;;;;19.27;15.33;;;10.10;99.90;;;;;;5037887;28;20457;-89
2022/10/05 06:27:35;;;;;;;20.60;16.50;;;10.10;99.90;;;;;;5039548;28;20457;-87
2022/10/05 06:30:09;;;;;;;17.73;15.07;;;10.20;99.90;;;;;;5035340;28;20540;-88
2022/10/05 06:32:52;;;;;;;18.57;16.40;;;10.20;99.90;;;;;;5037941;28;20544;-87
2022/10/05 06:35:30;;;;;;;18.77;16.47;;;10.30;99.90;;;;;;5036752;28;20441;-88
2022/10/05 06:38:16;;;;;;;21.37;14.83;;;10.30;99.90;;;;;;5035864;28;20798;-87
2022/10/05 06:40:59;;;;;;;13.63;12.23;;;10.30;99.90;;;;;;5034889;28;20493;-88
2022/10/05 06:43:37;;;;;;;15.33;12.60;;;10.40;99.90;;;;;;5041325;28;20450;-87
2022/10/05 06:46:09;;;;;;;19.83;13.33;;;10.50;99.90;;;;;;5034006;28;20449;-88
2022/10/05 06:48:53;;;;;;;14.63;13.20;;;10.60;99.90;;;;;;5034226;28;20835;-87
2022/10/05 06:51:26;;;;;;;18.70;13.33;;;10.60;99.90;;;;;;5033410;28;20829;-87
2022/10/05 06:54:04;;;;;;;15.30;11.87;;;10.70;99.90;;;;;;5034566;28;20461;-88
2022/10/05 06:56:40;;;;;;;20.00;13.47;;;10.80;99.90;;;;;;5033801;28;20453;-88
2022/10/05 06:59:11;;;;;;;16.70;13.43;;;10.90;99.90;;;;;;5033855;28;20456;-87
2022/10/05 07:01:47;;;;;;;24.60;14.43;;;11.10;99.90;;;;;;5034935;28;20481;-88
2022/10/05 07:04:32;;;;;;;14.33;12.03;;;11.10;99.90;;;;;;5034623;28;20449;-87
2022/10/05 07:07:02;;;;;;;16.53;13.87;;;11.20;99.90;;;;;;5032759;28;20446;-88
2022/10/05 07:09:39;;;;;;;18.80;13.30;;;11.30;99.90;;;;;;5033340;28;20461;-87
2022/10/05 07:12:36;;;;;;;13.60;11.80;;;11.40;99.90;;;;;;5033493;28;20456;-88
2022/10/05 07:15:19;;;;;;;13.63;11.10;;;11.50;99.90;;;;;;5034799;28;20462;-87
2022/10/05 07:17:56;;;;;;;15.03;12.53;;;11.60;99.90;;;;;;5055627;28;20428;-88
2022/10/05 07:20:30;;;;;;;16.37;12.87;;;11.80;99.90;;;;;;5048837;28;20460;-87
2022/10/05 07:23:32;;;;;;;18.37;11.87;;;11.90;99.90;;;;;;5056329;28;20430;-87
2022/10/05 07:26:05;;;;;;;13.50;12.10;;;12.00;99.90;;;;;;5041218;28;20441;-87
2022/10/05 07:28:44;;;;;;;13.30;12.00;;;12.10;99.90;;;;;;5037107;28;20449;-88
2022/10/05 07:31:17;;;;;;;13.73;10.60;;;12.20;99.90;;;;;;5031133;28;20595;-87
2022/10/05 07:33:51;;;;;;;10.37;9.27;;;12.30;99.90;;;;;;5030052;28;20449;-87
2022/10/05 07:39:14;;;;;;;11.10;9.30;;;12.50;99.90;;;;;;5049181;28;20438;-91
2022/10/05 07:41:44;;;;;;;11.07;9.90;;;12.50;99.90;;;;;;5043424;28;20473;-89
2022/10/05 07:44:19;;;;;;;11.40;9.70;;;12.60;99.90;;;;;;5026617;28;20508;-90
2022/10/05 07:46:53;;;;;;;13.17;9.37;;;12.70;99.90;;;;;;5030867;28;20465;-89
2022/10/05 07:49:28;;;;;;;10.30;9.00;;;12.90;99.90;;;;;;5040694;28;20482;-89
2022/10/05 07:51:59;;;;;;;8.27;7.43;;;13.40;99.90;;;;;;5050509;28;20421;-86
2022/10/05 07:54:34;;;;;;;13.63;9.43;;;13.60;99.90;;;;;;5031223;28;20465;-90
2022/10/05 07:57:09;;;;;;;12.17;10.03;;;14.00;99.90;;;;;;5012281;28;20850;-90
2022/10/05 07:59:44;;;;;;;11.93;9.37;;;14.20;99.90;;;;;;5029361;28;20465;-90
2022/10/05 08:02:19;;;;;;;13.53;11.10;;;14.10;99.90;;;;;;5027472;28;20480;-90
2022/10/05 08:04:53;;;;;;;13.63;11.17;;;14.20;99.90;;;;;;5030297;28;20860;-89
2022/10/05 08:07:20;;;;;;;12.60;9.60;;;14.10;99.90;;;;;;5029000;28;20961;-89
2022/10/05 08:09:54;;;;;;;12.63;8.57;;;14.10;99.90;;;;;;5030239;28;20457;-89
2022/10/05 08:12:31;;;;;;;9.47;8.57;;;14.30;99.90;;;;;;5012618;28;20439;-89
2022/10/05 08:15:03;;;;;;;10.80;8.50;;;14.80;99.90;;;;;;5012247;28;20435;-84
2022/10/05 08:17:48;;;;;;;9.97;8.60;;;15.80;99.90;;;;;;5017853;28;20500;-83
2022/10/05 08:20:38;;;;;;;12.03;8.90;;;16.40;99.90;;;;;;5024041;28;20999;-83
2022/10/05 08:23:15;;;;;;;15.33;11.10;;;16.40;99.90;;;;;;5034026;28;20490;-81
2022/10/05 08:25:50;;;;;;;10.50;9.40;;;16.30;99.90;;;;;;5025458;28;20451;-82
2022/10/05 08:28:22;;;;;;;8.67;7.80;;;16.00;99.90;;;;;;5017468;28;20782;-82
2022/10/05 08:30:56;;;;;;;10.60;8.60;;;15.60;99.90;;;;;;5017631;28;20462;-82
2022/10/05 08:33:25;;;;;;;10.10;9.20;;;15.50;99.90;;;;;;5016523;28;20458;-82
2022/10/05 08:36:00;;;;;;;10.00;9.00;;;15.50;99.90;;;;;;5026942;28;20447;-86
2022/10/05 08:38:32;;;;;;;9.93;9.00;;;15.70;99.90;;;;;;5042035;28;20452;-85
2022/10/05 08:41:40;;;;;;;10.30;7.97;;;16.40;99.90;;;;;;5025428;28;20454;-86
2022/10/05 08:44:50;;;;;;;8.73;7.83;;;17.90;99.90;;;;;;5030915;28;20440;-86
2022/10/05 08:47:29;;;;;;;8.20;7.40;;;18.50;99.90;;;;;;5021662;28;20443;-86
2022/10/05 08:50:11;;;;;;;9.13;8.17;;;18.40;99.90;;;;;;5013588;28;21242;-84
2022/10/05 08:52:57;;;;;;;8.80;8.00;;;17.80;99.90;;;;;;5026131;28;20434;-85
2022/10/05 08:55:34;;;;;;;10.50;7.63;;;17.80;99.90;;;;;;5012438;28;20438;-86
2022/10/05 08:58:52;;;;;;;9.00;8.10;;;18.10;99.90;;;;;;5013342;28;20789;-86
2022/10/05 09:01:22;;;;;;;9.50;7.90;;;18.20;99.90;;;;;;5014443;28;20489;-86
2022/10/05 09:04:21;;;;;;;8.13;7.33;;;19.10;99.90;;;;;;5014254;28;20485;-87
2022/10/05 09:07:08;;;;;;;10.27;7.87;;;19.60;99.90;;;;;;5014133;28;20451;-87
2022/10/05 09:10:17;;;;;;;8.20;7.50;;;19.50;99.90;;;;;;5025210;28;20439;-85
2022/10/05 09:13:12;;;;;;;7.60;6.50;;;19.70;99.90;;;;;;5028269;28;20446;-87
2022/10/05 09:16:14;;;;;;;8.37;7.60;;;20.70;98.90;;;;;;5017551;28;20811;-86
2022/10/05 09:19:29;;;;;;;7.70;7.00;;;23.00;95.70;;;;;;5041500;28;20488;-87
2022/10/05 09:22:05;;;;;;;7.30;6.27;;;25.60;90.10;;;;;;5030629;28;20476;-86
2022/10/05 09:24:51;;;;;;;9.17;7.70;;;25.30;84.30;;;;;;5057491;28;20476;-87
2022/10/05 09:27:26;;;;;;;9.70;8.20;;;24.60;85.30;;;;;;5056160;28;20442;-87
2022/10/05 09:30:12;;;;;;;8.70;7.50;;;24.20;87.50;;;;;;5056155;28;20848;-87
2022/10/05 09:33:14;;;;;;;8.07;7.30;;;24.00;87.80;;;;;;5056097;28;20438;-87
2022/10/05 09:36:11;;;;;;;9.03;7.30;;;23.90;86.70;;;;;;5055638;28;20453;-87
2022/10/05 09:39:05;;;;;;;10.90;8.13;;;24.70;88.00;;;;;;5055114;28;20452;-87
2022/10/05 09:41:51;;;;;;;10.87;6.90;;;26.20;82.10;;;;;;5055002;28;21011;-87
2022/10/05 09:45:00;;;;;;;8.03;7.23;;;28.10;74.10;;;;;;5055417;28;20428;-87
2022/10/05 09:47:46;;;;;;;7.40;6.77;;;27.90;74.80;;;;;;5005486;28;20497;-86
2022/10/05 09:50:49;;;;;;;9.40;7.20;;;28.60;70.70;;;;;;5009766;28;20483;-87
2022/10/05 09:53:39;;;;;;;7.50;6.40;;;28.90;67.60;;;;;;5044893;28;20448;-87
2022/10/05 09:56:47;;;;;;;9.33;8.20;;;29.10;66.30;;;;;;5033458;28;20511;-87
2022/10/05 09:59:44;;;;;;;6.93;6.20;;;29.60;65.80;;;;;;5077613;28;20479;-86
2022/10/05 10:02:29;;;;;;;7.03;6.33;;;31.00;63.30;;;;;;5070605;28;20520;-87
2022/10/05 10:05:30;;;;;;;8.70;6.70;;;32.00;58.90;;;;;;5057542;28;20453;-86
2022/10/05 10:08:20;;;;;;;11.10;6.80;;;31.80;58.90;;;;;;5055350;28;20448;-86
2022/10/05 10:11:09;;;;;;;7.03;5.80;;;32.10;59.60;;;;;;5055960;28;20469;-85
2022/10/05 10:14:05;;;;;;;7.70;6.10;;;32.30;56.40;;;;;;5055757;28;20762;-85
2022/10/05 10:16:52;;;;;;;7.43;6.60;;;33.50;55.30;;;;;;5055586;28;20445;-87
2022/10/05 10:20:04;;;;;;;9.67;5.97;;;33.00;55.50;;;;;;5055595;28;20473;-85
2022/10/05 10:22:56;;;;;;;6.13;4.50;;;33.10;54.50;;;;;;5049620;22;20483;-86
2022/10/05 10:25:49;;;;;;;8.27;5.43;;;33.20;55.00;;;;;;5048475;28;20503;-87
2022/10/05 10:28:43;;;;;;;5.37;4.83;;;33.80;53.20;;;;;;5054781;28;20445;-86
2022/10/05 10:31:45;;;;;;;4.33;3.93;;;33.60;52.90;;;;;;5012000;28;20452;-85
2022/10/05 10:34:38;;;;;;;5.83;4.60;;;33.00;54.00;;;;;;5021450;28;20455;-84
2022/10/05 10:37:28;;;;;;;6.20;5.23;;;34.50;51.70;;;;;;5008021;28;20972;-85
2022/10/05 10:40:16;;;;;;;5.90;4.00;;;33.90;52.30;;;;;;5049146;28;20446;-84
2022/10/05 10:42:53;;;;;;;5.20;4.43;;;34.60;50.70;;;;;;5051756;28;20487;-85
2022/10/05 10:45:36;;;;;;;4.63;4.20;;;35.30;51.10;;;;;;5040079;28;20436;-85
2022/10/05 10:48:04;;;;;;;5.73;4.87;;;35.10;49.00;;;;;;5050320;28;20491;-87
2022/10/05 10:51:11;;;;;;;5.17;4.10;;;35.70;49.20;;;;;;5049525;28;20458;-83
2022/10/05 10:54:02;;;;;;;7.23;3.77;;;35.20;48.30;;;;;;5051467;28;20458;-85
2022/10/05 10:56:47;;;;;;;5.93;3.70;;;36.10;48.20;;;;;;5042195;28;20493;-83
2022/10/05 10:59:47;;;;;;;5.50;3.33;;;36.90;46.90;;;;;;5054346;28;20449;-85
2022/10/05 11:02:50;;;;;;;7.43;4.27;;;36.90;47.70;;;;;;5043492;28;20496;-84
2022/10/05 11:05:38;;;;;;;6.00;3.80;;;36.90;45.90;;;;;;5030824;28;20447;-84
2022/10/05 11:08:39;;;;;;;4.83;4.20;;;37.70;45.50;;;;;;5022558;28;20448;-85
2022/10/05 11:11:34;;;;;;;4.07;3.50;;;38.50;44.40;;;;;;5044124;28;20505;-84
2022/10/05 11:14:15;;;;;;;4.70;4.20;;;37.70;44.60;;;;;;5025362;28;20509;-86
2022/10/05 11:17:09;;;;;;;8.23;4.10;;;37.40;44.70;;;;;;5058266;28;20449;-87
2022/10/05 11:19:54;;;;;;;4.40;3.47;;;37.80;44.60;;;;;;5056984;28;20453;-84
2022/10/05 11:22:48;;;;;;;7.43;3.60;;;37.90;44.00;;;;;;5046153;28;20488;-85
2022/10/05 11:25:47;;;;;;;5.40;4.37;;;37.80;44.30;;;;;;5042210;28;20465;-84
2022/10/05 11:28:43;;;;;;;4.17;3.77;;;36.90;44.90;;;;;;5047968;28;20467;-83
2022/10/05 11:31:57;;;;;;;6.23;3.67;;;36.60;44.70;;;;;;5042316;28;20456;-83
2022/10/05 11:34:58;;;;;;;4.30;3.37;;;36.20;46.60;;;;;;5041377;28;20459;-87
2022/10/05 11:37:48;;;;;;;5.07;3.10;;;36.90;46.00;;;;;;5017793;28;20453;-83
2022/10/05 11:40:55;;;;;;;4.70;3.57;;;35.00;48.40;;;;;;5040229;28;20472;-81
2022/10/05 11:43:56;;;;;;;3.67;3.37;;;34.10;48.60;;;;;;5033184;28;20496;-84
2022/10/05 11:46:29;;;;;;;6.03;3.60;;;33.00;50.30;;;;;;5041247;28;20536;-83
2022/10/05 11:49:11;;;;;;;9.03;3.40;;;33.40;50.60;;;;;;5041390;28;20574;-84
2022/10/05 11:51:57;;;;;;;3.87;3.57;;;33.50;50.40;;;;;;5045073;28;20442;-81
2022/10/05 11:54:46;;;;;;;3.10;2.80;;;35.00;49.70;;;;;;5046582;28;20454;-81
2022/10/05 11:57:19;;;;;;;3.00;2.40;;;35.20;47.90;;;;;;5041793;28;20457;-82
2022/10/05 11:59:52;;;;;;;2.73;2.03;;;34.20;46.60;;;;;;5041189;28;20922;-82
2022/10/05 12:02:59;;;;;;;3.47;2.13;;;33.00;48.10;;;;;;5040895;28;20491;-80
2022/10/05 12:05:32;;;;;;;4.57;2.90;;;31.20;51.40;;;;;;4979509;28;20471;-82
2022/10/05 12:08:20;;;;;;;2.43;2.23;;;31.20;52.80;;;;;;5032898;28;20449;-83
2022/10/05 12:11:00;;;;;;;2.50;2.30;;;31.70;52.40;;;;;;5041871;28;20443;-82
2022/10/05 12:13:37;;;;;;;4.13;2.20;;;33.00;51.40;;;;;;5042027;28;20457;-83
2022/10/05 12:16:10;;;;;;;4.20;2.70;;;33.20;50.50;;;;;;5040080;28;20527;-84
2022/10/05 12:18:46;;;;;;;2.50;2.30;;;33.60;49.50;;;;;;5039046;28;20594;-84
2022/10/05 12:21:26;;;;;;;6.30;2.00;;;32.70;49.40;;;;;;5047800;28;20436;-82
2022/10/05 12:23:58;;;;;;;2.33;2.13;;;32.50;50.40;;;;;;5048795;28;20501;-80
2022/10/05 12:26:29;;;;;;;4.77;2.60;;;32.60;50.70;;;;;;5051362;28;20531;-84
2022/10/05 12:29:02;;;;;;;3.37;2.40;;;32.40;50.20;;;;;;5049642;28;20522;-80
2022/10/05 12:31:37;;;;;;;2.50;2.27;;;30.80;51.60;;;;;;5049867;28;20448;-82
2022/10/05 12:34:13;;;;;;;2.40;2.20;;;29.50;54.70;;;;;;5050623;28;20454;-81
2022/10/05 12:36:45;;;;;;;5.00;2.57;;;28.60;57.10;;;;;;5047970;28;20442;-81
2022/10/05 12:39:22;;;;;;;2.93;2.63;;;27.90;58.70;;;;;;5040705;28;20460;-82
2022/10/05 12:41:54;;;;;;;4.03;2.23;;;27.60;59.70;;;;;;5037683;28;20552;-81
2022/10/05 12:44:44;;;;;;;4.83;2.70;;;28.00;59.80;;;;;;5053195;28;20433;-83
2022/10/05 12:47:19;;;;;;;2.50;2.03;;;28.30;58.20;;;;;;5058111;28;20469;-81
2022/10/05 12:50:09;;;;;;;3.30;2.30;;;28.00;59.00;;;;;;5024342;28;20444;-81
2022/10/05 12:52:55;;;;;;;3.60;2.83;;;28.40;58.80;;;;;;5019117;28;20471;-83
2022/10/05 12:55:29;;;;;;;4.03;2.20;;;28.90;58.60;;;;;;5019214;28;20458;-81
2022/10/05 12:58:05;;;;;;;2.90;2.10;;;28.10;59.20;;;;;;5019777;28;20449;-83
2022/10/05 13:00:36;;;;;;;2.63;1.97;;;28.10;58.60;;;;;;5026330;28;20449;-81
2022/10/05 13:03:12;;;;;;;3.93;2.53;;;28.40;59.00;;;;;;5032970;28;20478;-83
2022/10/05 13:05:48;;;;;;;2.60;1.87;;;29.00;56.30;;;;;;5019907;28;20442;-82
2022/10/05 13:08:23;;;;;;;4.60;2.30;;;28.70;55.50;;;;;;5018944;28;20832;-83
2022/10/05 13:10:57;;;;;;;3.80;1.73;;;28.50;54.80;;;;;;5018713;28;20457;-83
2022/10/05 13:13:46;;;;;;;3.27;1.60;;;28.40;54.80;;;;;;5018690;28;20877;-83
2022/10/05 13:16:26;;;;;;;2.30;1.90;;;28.40;54.70;;;;;;5021951;28;20447;-81
2022/10/05 13:19:05;;;;;;;6.50;1.80;;;28.10;54.00;;;;;;5032893;28;20455;-82
2022/10/05 13:21:58;;;;;;;1.67;1.37;;;27.70;53.00;;;;;;5038398;28;20445;-83
2022/10/05 13:24:29;;;;;;;3.00;1.40;;;27.40;53.30;;;;;;5054869;28;20481;-80
2022/10/05 13:27:03;;;;;;;3.60;1.83;;;27.10;53.70;;;;;;5056791;28;20452;-84
2022/10/05 13:29:38;;;;;;;5.27;1.97;;;26.80;54.40;;;;;;5052897;28;20442;-82
2022/10/05 13:32:14;;;;;;;2.27;1.33;;;26.80;55.10;;;;;;5037937;28;20979;-82
2022/10/05 13:34:49;;;;;;;2.63;1.70;;;26.40;55.10;;;;;;5038372;28;20939;-84
2022/10/05 13:37:24;;;;;;;3.57;3.07;;;26.30;56.50;;;;;;5038297;28;20437;-84
2022/10/05 13:39:59;;;;;;;5.73;1.23;;;26.30;55.90;;;;;;5039649;28;20456;-84
2022/10/05 13:42:34;;;;;;;2.93;2.30;;;26.20;56.50;;;;;;5039524;28;20472;-83